Startpagina
METAR-TAF:

METAR-TAF

Vliegvelden :

Aeropuerto de Zaragoza

Zaragoza, Spanje

breedte: 41-40N, lengte: 001-01W, hoogte: 263 m

Actueel weer

Dit bericht is 36 minuten geleden gemaakt, om 19:00 UTC
Wind 4 kt uit het oostnoordoosten
Temperatuur 19°C
Vochtigheid 88%
Druk 1013 hPa
Zicht 10 km of meer
Verspreide wolken op 8000 ft
lichte regen

METAR: LEZG 311900Z 06004KT 9999 -RA SCT080 19/17 Q1013

Tijdstip: 21:36 (19:36 UTC)

Verwachting

Dit bericht is 2 uur en het 36 minuten geleden gemaakt, om 17:00 UTC
Verwachting geldig van 31 om 18 UTC tot 01 om 18 UTC
Wind 10 kt uit het oostzuidoosten
Zicht 10 km of meer
Weinig wolken op 4000 ft
Tijdelijke
van 31 om 18 UTC tot 31 om 20 UTC
Wind 20 kt uit het westen met uitschieters tot 40 kt
Zicht: 5000 m
Verspreide wolken op 5000 ft, Cumulonimbus.
onweer, regen

TAF: LEZG 311700Z 3118/0118 11010KT 9999 FEW040 TX30/0113Z TN18/0106Z TEMPO 3118/3120 27020G40KT 5000 TSRA SCT050CB

Waarnemingen en weersverwachtingen van meer dan 4000 vliegvelden (METAR en TAF).

De beschikbare stations zijn de gele en rode punten op de kaart.

Ga met uw muis naar het station om de naam te zien.

Klik dan om waarnemingen en weersverwachtingen te zien.

kaart wijzigen: klik op de groene knoppen met een zwart kruis om in te zoomen, op de groene knop met een streepje om uit te zoomen of op de groene pijlen voor aangrenzende kaarten.


METAR-TAF: